Time;durP1;ratioP1;P1;durP2;ratioP2;P2;SDS_P1;SDS_P2;PMS_P1;PMS_P2;Temp;Humidity;BMP_temperature;BMP_pressure;BME280_temperature;BME280_humidity;BME280_pressure;Samples;Min_cycle;Max_cycle;Signal;HPM_P1;HPM_P2
2023/10/25 00:00:41;;;;;;;21.75;15.70;;;;;;;-148.88;100.00;-17125.47;5012656;28;20465;-71
2023/10/25 00:03:10;;;;;;;16.90;8.50;;;;;;;-148.88;100.00;-17125.47;5012542;28;20397;-71
2023/10/25 00:05:35;;;;;;;18.63;8.23;;;;;;;-148.88;100.00;-17125.47;5012649;28;20029;-71
2023/10/25 00:08:01;;;;;;;21.80;16.42;;;;;;;-148.88;100.00;-17125.47;5012481;28;20065;-71
2023/10/25 00:10:27;;;;;;;21.80;16.30;;;;;;;-148.88;100.00;-17125.47;5012618;28;20030;-71
2023/10/25 00:12:52;;;;;;;16.55;8.40;;;;;;;-148.88;100.00;-17125.47;5012530;28;20022;-71
2023/10/25 00:15:18;;;;;;;22.75;15.95;;;;;;;-148.88;100.00;-17125.47;5012478;28;20034;-71
2023/10/25 00:17:43;;;;;;;23.20;15.82;;;;;;;-148.88;100.00;-17125.47;5012731;28;20475;-71
2023/10/25 00:20:08;;;;;;;25.17;16.35;;;;;;;-148.88;100.00;-17125.47;5012285;28;20034;-71
2023/10/25 00:22:34;;;;;;;21.75;17.17;;;;;;;-148.88;100.00;-17125.47;5012718;28;20140;-71
2023/10/25 00:24:59;;;;;;;17.05;8.00;;;;;;;-148.88;100.00;-17125.47;5012598;28;20037;-71
2023/10/25 00:27:24;;;;;;;22.80;16.58;;;;;;;-148.88;100.00;-17125.47;5012473;28;20026;-71
2023/10/25 00:29:50;;;;;;;22.20;15.88;;;;;;;-148.88;100.00;-17125.47;5012430;28;20026;-71
2023/10/25 00:32:15;;;;;;;17.15;7.38;;;;;;;-148.88;100.00;-17125.47;5012606;28;20025;-71
2023/10/25 00:34:41;;;;;;;21.95;15.13;;;;;;;-148.88;100.00;-17125.47;5012301;28;20053;-71
2023/10/25 00:37:07;;;;;;;20.83;14.77;;;;;;;-148.88;100.00;-17125.47;5012420;28;20075;-71
2023/10/25 00:39:32;;;;;;;19.17;14.90;;;;;;;-148.88;100.00;-17125.47;5010934;28;20018;-70
2023/10/25 00:41:57;;;;;;;23.55;15.15;;;;;;;-148.88;100.00;-17125.47;5012466;28;20392;-71
2023/10/25 00:44:23;;;;;;;22.90;15.07;;;;;;;-148.88;100.00;-17125.47;5010938;28;20030;-71
2023/10/25 00:46:49;;;;;;;19.73;15.15;;;;;;;-148.88;100.00;-17125.47;5010880;28;20025;-71
2023/10/25 00:49:16;;;;;;;17.90;7.35;;;;;;;-148.88;100.00;-17125.47;5011995;28;20034;-71
2023/10/25 00:51:41;;;;;;;15.50;7.25;;;;;;;-148.88;100.00;-17125.47;5012317;28;20018;-71
2023/10/25 00:54:07;;;;;;;19.27;6.90;;;;;;;-148.88;100.00;-17125.47;5012426;28;20022;-71
2023/10/25 00:56:33;;;;;;;16.63;13.40;;;;;;;-148.88;100.00;-17125.47;5012183;28;20496;-71
2023/10/25 00:58:59;;;;;;;13.85;6.65;;;;;;;-148.88;100.00;-17125.47;5011965;28;20038;-71
2023/10/25 01:01:27;;;;;;;18.90;13.07;;;;;;;-148.88;100.00;-17125.47;5010714;28;20029;-71
2023/10/25 01:03:54;;;;;;;20.20;13.48;;;;;;;-148.88;100.00;-17125.47;5012024;28;20026;-71
2023/10/25 01:06:19;;;;;;;17.55;13.25;;;;;;;-148.88;100.00;-17125.47;5012685;28;20080;-71
2023/10/25 01:08:45;;;;;;;14.00;6.60;;;;;;;-148.88;100.00;-17125.47;5014588;28;20026;-71
2023/10/25 01:11:11;;;;;;;24.58;13.10;;;;;;;-148.88;100.00;-17125.47;5015662;28;20502;-71
2023/10/25 01:13:37;;;;;;;16.17;12.25;;;;;;;-148.88;100.00;-17125.47;5015556;28;20096;-71
2023/10/25 01:16:03;;;;;;;19.15;12.63;;;;;;;-148.88;100.00;-17125.47;5015512;28;20480;-71
2023/10/25 01:18:28;;;;;;;16.92;12.98;;;;;;;-148.88;100.00;-17125.47;5015496;28;20109;-71
2023/10/25 01:20:54;;;;;;;15.45;6.28;;;;;;;-148.88;100.00;-17125.47;5015497;28;20472;-71
2023/10/25 01:23:19;;;;;;;18.52;12.55;;;;;;;-148.88;100.00;-17125.47;5015515;28;20101;-71
2023/10/25 01:25:45;;;;;;;14.20;6.22;;;;;;;-148.88;100.00;-17125.47;5015307;28;20025;-71
2023/10/25 01:28:11;;;;;;;11.50;6.13;;;;;;;-148.88;100.00;-17125.47;5015622;28;20026;-71
2023/10/25 01:30:37;;;;;;;15.05;11.48;;;;;;;-148.88;100.00;-17125.47;5013826;28;20392;-71
2023/10/25 01:33:02;;;;;;;14.23;11.35;;;;;;;-148.88;100.00;-17125.47;5015519;28;20022;-71
2023/10/25 01:35:28;;;;;;;15.93;11.32;;;;;;;-148.88;100.00;-17125.47;5015197;28;20061;-71
2023/10/25 01:37:54;;;;;;;16.70;6.28;;;;;;;-148.88;100.00;-17125.47;5015231;28;20030;-71
2023/10/25 01:40:20;;;;;;;13.27;6.03;;;;;;;-148.88;100.00;-17125.47;5013523;28;20096;-71
2023/10/25 01:42:45;;;;;;;21.35;11.93;;;;;;;-148.88;100.00;-17125.47;5015026;28;20026;-71
2023/10/25 01:45:11;;;;;;;16.35;11.48;;;;;;;-148.88;100.00;-17125.47;5015077;28;20030;-71
2023/10/25 01:47:40;;;;;;;17.77;11.57;;;;;;;-148.88;100.00;-17125.47;5014914;28;20045;-71
2023/10/25 01:50:06;;;;;;;14.30;11.45;;;;;;;-148.88;100.00;-17125.47;5014656;28;20060;-71
2023/10/25 01:52:31;;;;;;;14.27;10.88;;;;;;;-148.88;100.00;-17125.47;5014778;28;20420;-71
2023/10/25 01:54:57;;;;;;;12.43;5.68;;;;;;;-148.88;100.00;-17125.47;5013507;28;20029;-71
2023/10/25 01:57:22;;;;;;;12.02;5.85;;;;;;;-148.88;100.00;-17125.47;5014739;28;20033;-71
2023/10/25 01:59:48;;;;;;;13.93;10.63;;;;;;;-148.88;100.00;-17125.47;5014689;28;20382;-71
2023/10/25 02:02:13;;;;;;;11.63;5.30;;;;;;;-148.88;100.00;-17125.47;5013248;28;20037;-71
2023/10/25 02:04:38;;;;;;;12.93;5.45;;;;;;;-148.88;100.00;-17125.47;5014561;28;20109;-71
2023/10/25 02:07:04;;;;;;;14.88;9.57;;;;;;;-148.88;100.00;-17125.47;5014498;28;20026;-71
2023/10/25 02:09:30;;;;;;;12.85;9.52;;;;;;;-148.88;100.00;-17125.47;5014399;28;20044;-71
2023/10/25 02:11:56;;;;;;;16.05;9.90;;;;;;;-148.88;100.00;-17125.47;5014445;28;20037;-71
2023/10/25 02:14:21;;;;;;;14.02;9.80;;;;;;;-148.88;100.00;-17125.47;5014629;28;20062;-71
2023/10/25 02:16:47;;;;;;;11.35;5.10;;;;;;;-148.88;100.00;-17125.47;5014400;28;20022;-71
2023/10/25 02:19:12;;;;;;;12.77;9.43;;;;;;;-148.88;100.00;-17125.47;5013548;28;20603;-72
2023/10/25 02:21:37;;;;;;;13.50;5.70;;;;;;;-148.88;100.00;-17125.47;5014302;28;20036;-71
2023/10/25 02:24:04;;;;;;;15.07;10.30;;;;;;;-148.88;100.00;-17125.47;5014321;28;20032;-71
2023/10/25 02:26:30;;;;;;;10.93;7.03;;;;;;;-148.88;100.00;-17125.47;5014297;28;20026;-71
2023/10/25 02:28:56;;;;;;;13.30;5.32;;;;;;;-148.88;100.00;-17125.47;5014118;28;20133;-71
2023/10/25 02:31:22;;;;;;;8.43;4.80;;;;;;;-148.88;100.00;-17125.47;5014375;28;20026;-71
2023/10/25 02:33:47;;;;;;;13.00;8.68;;;;;;;-148.88;100.00;-17125.47;5012783;28;20033;-71
2023/10/25 02:36:12;;;;;;;16.33;10.20;;;;;;;-148.88;100.00;-17125.47;5014119;28;20022;-71
2023/10/25 02:38:38;;;;;;;10.40;4.97;;;;;;;-148.88;100.00;-17125.47;5014218;28;20038;-71
2023/10/25 02:41:03;;;;;;;13.07;6.13;;;;;;;-148.88;100.00;-17125.47;5013769;28;20108;-71
2023/10/25 02:43:29;;;;;;;15.38;9.27;;;;;;;-148.88;100.00;-17125.47;5013859;28;20045;-71
2023/10/25 02:46:08;;;;;;;12.85;9.40;;;;;;;-148.88;100.00;-17125.47;5013840;28;20030;-71
2023/10/25 02:48:35;;;;;;;9.77;4.78;;;;;;;-148.88;100.00;-17125.47;5014051;28;20028;-71
2023/10/25 02:51:01;;;;;;;10.90;5.22;;;;;;;-148.88;100.00;-17125.47;5013731;28;20029;-71
2023/10/25 02:53:26;;;;;;;13.57;9.73;;;;;;;-148.88;100.00;-17125.47;5013789;28;20090;-71
2023/10/25 02:56:01;;;;;;;16.33;9.80;;;;;;;-148.88;100.00;-17125.47;5013764;28;20530;-71
2023/10/25 02:58:27;;;;;;;15.13;5.78;;;;;;;-148.88;100.00;-17125.47;5013742;28;20018;-71
2023/10/25 03:00:52;;;;;;;13.50;5.28;;;;;;;-148.88;100.00;-17125.47;5013514;28;20026;-71
2023/10/25 03:03:17;;;;;;;14.38;10.43;;;;;;;-148.88;100.00;-17125.47;5013565;28;20037;-71
2023/10/25 03:05:43;;;;;;;11.52;5.07;;;;;;;-148.88;100.00;-17125.47;5013759;28;20026;-71
2023/10/25 03:08:08;;;;;;;10.35;5.20;;;;;;;-148.88;100.00;-17125.47;5012190;28;20032;-71
2023/10/25 03:10:33;;;;;;;14.10;9.68;;;;;;;-148.88;100.00;-17125.47;5013603;28;20208;-71
2023/10/25 03:12:59;;;;;;;13.13;9.52;;;;;;;-148.88;100.00;-17125.47;5013365;28;20448;-71
2023/10/25 03:15:25;;;;;;;13.90;9.98;;;;;;;-148.88;100.00;-17125.47;5013375;28;20088;-71
2023/10/25 03:17:50;;;;;;;10.80;6.15;;;;;;;-148.88;100.00;-17125.47;5013526;28;20022;-71
2023/10/25 03:20:16;;;;;;;11.82;6.18;;;;;;;-148.88;100.00;-17125.47;5013125;28;20079;-71
2023/10/25 03:22:44;;;;;;;12.10;6.07;;;;;;;-148.88;100.00;-17125.47;5012623;28;20034;-71
2023/10/25 03:25:09;;;;;;;15.77;9.57;;;;;;;-148.88;100.00;-17125.47;5013670;28;20101;-71
2023/10/25 03:27:34;;;;;;;11.85;5.10;;;;;;;-148.88;100.00;-17125.47;5013157;28;20450;-71
2023/10/25 03:30:00;;;;;;;15.95;10.07;;;;;;;-148.88;100.00;-17125.47;5013061;28;20433;-71
2023/10/25 03:32:25;;;;;;;11.88;5.35;;;;;;;-148.88;100.00;-17125.47;5013113;28;20100;-71
2023/10/25 03:34:51;;;;;;;14.82;10.13;;;;;;;-148.88;100.00;-17125.47;5011630;28;20079;-71
2023/10/25 03:37:17;;;;;;;15.00;9.63;;;;;;;-148.88;100.00;-17125.47;5012904;28;20062;-71
2023/10/25 03:39:42;;;;;;;14.05;8.98;;;;;;;-148.88;100.00;-17125.47;5012809;28;20049;-71
2023/10/25 03:42:08;;;;;;;14.32;9.63;;;;;;;-148.88;100.00;-17125.47;5012740;28;20026;-71
2023/10/25 03:44:33;;;;;;;8.82;4.38;;;;;;;-148.88;100.00;-17125.47;5012839;28;20036;-71
2023/10/25 03:46:58;;;;;;;15.45;9.50;;;;;;;-148.88;100.00;-17125.47;5012916;28;20041;-71
2023/10/25 03:49:24;;;;;;;13.55;9.55;;;;;;;-148.88;100.00;-17125.47;5012687;28;20147;-71
2023/10/25 03:51:50;;;;;;;13.75;9.30;;;;;;;-148.88;100.00;-17125.47;5012980;28;20053;-71
2023/10/25 03:54:15;;;;;;;14.02;9.73;;;;;;;-148.88;100.00;-17125.47;5012159;28;20117;-71
2023/10/25 03:56:42;;;;;;;10.65;4.80;;;;;;;-148.88;100.00;-17125.47;5012637;28;20024;-71
2023/10/25 03:59:08;;;;;;;9.57;5.05;;;;;;;-148.88;100.00;-17125.47;5012764;28;20021;-71
2023/10/25 04:01:33;;;;;;;8.70;4.55;;;;;;;-148.88;100.00;-17125.47;5012735;28;20428;-71
2023/10/25 04:03:59;;;;;;;15.73;9.15;;;;;;;-148.88;100.00;-17125.47;5012730;28;20025;-71
2023/10/25 04:06:25;;;;;;;15.07;8.80;;;;;;;-148.88;100.00;-17125.47;5012696;28;20022;-71
2023/10/25 04:08:50;;;;;;;10.00;3.92;;;;;;;-148.88;100.00;-17125.47;5012704;28;20021;-71
2023/10/25 04:11:15;;;;;;;13.07;9.02;;;;;;;-148.88;100.00;-17125.47;5012628;28;20022;-71
2023/10/25 04:13:41;;;;;;;8.88;4.25;;;;;;;-148.88;100.00;-17125.47;5012713;28;20022;-72
2023/10/25 04:16:09;;;;;;;12.13;8.60;;;;;;;-148.88;100.00;-17125.47;5012743;28;20026;-72
2023/10/25 04:18:35;;;;;;;11.88;8.35;;;;;;;-148.88;100.00;-17125.47;5012578;28;20469;-72
2023/10/25 04:21:01;;;;;;;11.18;8.45;;;;;;;-148.88;100.00;-17125.47;5012379;28;20022;-71
2023/10/25 04:23:29;;;;;;;8.52;4.47;;;;;;;-148.88;100.00;-17125.47;5013028;28;20030;-72
2023/10/25 04:26:03;;;;;;;11.60;8.35;;;;;;;-148.88;100.00;-17125.47;5013037;28;20428;-71
2023/10/25 04:28:29;;;;;;;8.60;4.47;;;;;;;-148.88;100.00;-17125.47;5012469;28;20062;-71
2023/10/25 04:30:54;;;;;;;12.00;8.65;;;;;;;-148.88;100.00;-17125.47;5012557;28;20018;-71
2023/10/25 04:33:20;;;;;;;11.20;8.48;;;;;;;-148.88;100.00;-17125.47;5012309;28;20026;-71
2023/10/25 04:35:45;;;;;;;13.55;9.20;;;;;;;-148.88;100.00;-17125.47;5012580;28;20026;-71
2023/10/25 04:38:10;;;;;;;11.68;5.40;;;;;;;-148.88;100.00;-17125.47;5012690;28;20065;-71
2023/10/25 04:40:36;;;;;;;7.60;4.20;;;;;;;-148.88;100.00;-17125.47;5012253;28;20090;-71
2023/10/25 04:43:01;;;;;;;10.70;4.78;;;;;;;-148.88;100.00;-17125.47;5015796;28;20084;-72
2023/10/25 04:45:28;;;;;;;13.35;9.57;;;;;;;-148.88;100.00;-17125.47;5014915;28;20026;-72
2023/10/25 04:47:54;;;;;;;8.95;4.32;;;;;;;-148.88;100.00;-17125.47;5016174;28;20030;-71
2023/10/25 04:50:21;;;;;;;11.52;8.45;;;;;;;-148.88;100.00;-17125.47;5015836;28;20112;-71
2023/10/25 04:52:47;;;;;;;9.57;4.65;;;;;;;-148.88;100.00;-17125.47;5016146;28;20032;-71
2023/10/25 04:55:13;;;;;;;13.20;8.95;;;;;;;-148.88;100.00;-17125.47;5014568;28;20080;-71
2023/10/25 04:57:39;;;;;;;10.30;4.38;;;;;;;-148.88;100.00;-17125.47;5016254;28;20029;-71
2023/10/25 05:00:09;;;;;;;16.35;9.63;;;;;;;-148.88;100.00;-17125.47;5015862;28;20030;-71
2023/10/25 05:02:35;;;;;;;9.30;5.15;;;;;;;-148.88;100.00;-17125.47;5016076;28;20061;-71
2023/10/25 05:05:00;;;;;;;9.85;5.45;;;;;;;-148.88;100.00;-17125.47;5014502;28;20463;-71
2023/10/25 05:07:26;;;;;;;8.95;4.50;;;;;;;-148.88;100.00;-17125.47;5014554;28;20026;-71
2023/10/25 05:09:51;;;;;;;11.65;8.48;;;;;;;-148.88;100.00;-17125.47;5015922;28;20033;-71
2023/10/25 05:12:23;;;;;;;12.60;8.98;;;;;;;-148.88;100.00;-17125.47;5015520;28;20022;-71
2023/10/25 05:14:49;;;;;;;15.25;9.35;;;;;;;-148.88;100.00;-17125.47;5015584;28;20651;-72
2023/10/25 05:17:14;;;;;;;16.58;9.50;;;;;;;-148.88;100.00;-17125.47;5014253;28;20033;-71
2023/10/25 05:19:40;;;;;;;12.38;4.35;;;;;;;-148.88;100.00;-17125.47;5015295;28;20018;-71
2023/10/25 05:22:11;;;;;;;19.60;9.82;;;;;;;-148.88;100.00;-17125.47;5014182;28;20113;-72
2023/10/25 05:24:37;;;;;;;8.73;4.10;;;;;;;-148.88;100.00;-17125.47;5015763;28;20030;-71
2023/10/25 05:27:02;;;;;;;14.52;9.52;;;;;;;-148.88;100.00;-17125.47;5015396;28;20527;-71
2023/10/25 05:29:28;;;;;;;11.20;5.22;;;;;;;-148.88;100.00;-17125.47;5015267;28;20026;-74
2023/10/25 05:31:56;;;;;;;9.50;4.85;;;;;;;-148.88;100.00;-17125.47;5015277;28;20022;-72
2023/10/25 05:34:21;;;;;;;11.15;4.78;;;;;;;-148.88;100.00;-17125.47;5015234;28;20026;-73
2023/10/25 05:36:47;;;;;;;13.15;5.40;;;;;;;-148.88;100.00;-17125.47;5013881;28;20025;-73
2023/10/25 05:39:13;;;;;;;19.45;11.88;;;;;;;-148.88;100.00;-17125.47;5015405;28;20021;-72
2023/10/25 05:41:42;;;;;;;18.02;11.57;;;;;;;-148.88;100.00;-17125.47;5015090;28;20088;-72
2023/10/25 05:44:13;;;;;;;11.07;6.18;;;;;;;-148.88;100.00;-17125.47;5014994;28;20029;-72
2023/10/25 05:46:38;;;;;;;16.40;10.68;;;;;;;-148.88;100.00;-17125.47;5015105;28;20532;-72
2023/10/25 05:49:04;;;;;;;10.73;5.25;;;;;;;-148.88;100.00;-17125.47;5014799;28;20053;-72
2023/10/25 05:51:30;;;;;;;16.95;11.63;;;;;;;-148.88;100.00;-17125.47;5013764;28;20025;-72
2023/10/25 05:53:56;;;;;;;15.98;10.88;;;;;;;-148.88;100.00;-17125.47;5013858;28;20100;-72
2023/10/25 05:56:25;;;;;;;10.90;5.88;;;;;;;-148.88;100.00;-17125.47;5014925;28;20029;-71
2023/10/25 05:58:54;;;;;;;11.30;5.20;;;;;;;-148.88;100.00;-17125.47;5015009;28;20026;-72
2023/10/25 06:01:26;;;;;;;10.45;5.40;;;;;;;-148.88;100.00;-17125.47;5014614;28;20389;-72
2023/10/25 06:03:58;;;;;;;13.43;10.73;;;;;;;-148.88;100.00;-17125.47;5014601;28;20119;-73
2023/10/25 06:06:26;;;;;;;12.52;5.57;;;;;;;-148.88;100.00;-17125.47;5014603;28;20432;-72
2023/10/25 06:08:51;;;;;;;9.93;4.72;;;;;;;-148.88;100.00;-17125.47;5014458;28;20068;-73
2023/10/25 06:11:17;;;;;;;15.23;11.27;;;;;;;-148.88;100.00;-17125.47;5014478;28;20022;-72
2023/10/25 06:13:43;;;;;;;10.25;4.85;;;;;;;-148.88;100.00;-17125.47;5014425;28;20029;-71
2023/10/25 06:16:09;;;;;;;9.90;5.07;;;;;;;-148.88;100.00;-17125.47;5014446;28;20033;-72
2023/10/25 06:18:34;;;;;;;16.52;10.30;;;;;;;-148.88;100.00;-17125.47;5014641;28;20026;-72
2023/10/25 06:20:59;;;;;;;8.90;5.00;;;;;;;-148.88;100.00;-17125.47;5014205;28;20097;-72
2023/10/25 06:23:25;;;;;;;10.05;5.15;;;;;;;-148.88;100.00;-17125.47;5013008;28;20037;-71
2023/10/25 06:25:50;;;;;;;8.27;5.20;;;;;;;-148.88;100.00;-17125.47;5014171;28;20049;-71
2023/10/25 06:28:15;;;;;;;10.93;5.15;;;;;;;-148.88;100.00;-17125.47;5014130;28;20053;-72
2023/10/25 06:30:41;;;;;;;15.52;10.40;;;;;;;-148.88;100.00;-17125.47;5014124;28;20014;-71
2023/10/25 06:33:07;;;;;;;9.38;5.03;;;;;;;-148.88;100.00;-17125.47;5014035;28;20477;-72
2023/10/25 06:35:33;;;;;;;9.07;4.72;;;;;;;-148.88;100.00;-17125.47;5014110;28;20022;-72
2023/10/25 06:37:58;;;;;;;9.38;5.13;;;;;;;-148.88;100.00;-17125.47;5013941;28;20033;-72
2023/10/25 06:40:24;;;;;;;13.18;8.95;;;;;;;-148.88;100.00;-17125.47;5013813;28;20395;-72
2023/10/25 06:42:52;;;;;;;10.45;4.97;;;;;;;-148.88;100.00;-17125.47;5012579;28;20025;-72
2023/10/25 06:45:18;;;;;;;15.98;9.90;;;;;;;-148.88;100.00;-17125.47;5014247;28;20373;-72
2023/10/25 06:47:44;;;;;;;10.40;4.53;;;;;;;-148.88;100.00;-17125.47;5013774;28;20504;-72
2023/10/25 06:50:14;;;;;;;8.63;4.43;;;;;;;-148.88;100.00;-17125.47;5014099;28;20045;-73
2023/10/25 06:52:40;;;;;;;13.25;9.48;;;;;;;-148.88;100.00;-17125.47;5013829;28;20044;-72
2023/10/25 06:55:06;;;;;;;8.73;4.50;;;;;;;-148.88;100.00;-17125.47;5013676;28;20021;-72
2023/10/25 06:57:31;;;;;;;11.57;9.25;;;;;;;-148.88;100.00;-17125.47;5013713;28;20029;-72
2023/10/25 06:59:57;;;;;;;14.63;10.07;;;;;;;-148.88;100.00;-17125.47;5013989;28;20534;-73
2023/10/25 07:02:28;;;;;;;12.82;5.35;;;;;;;-148.88;100.00;-17125.47;5013464;28;20465;-73
2023/10/25 07:05:00;;;;;;;13.68;5.30;;;;;;;-148.88;100.00;-17125.47;5014635;28;20034;-73
2023/10/25 07:07:30;;;;;;;12.30;9.82;;;;;;;-148.88;100.00;-17125.47;5013388;28;20028;-73
2023/10/25 07:09:55;;;;;;;17.58;11.18;;;;;;;-148.88;100.00;-17125.47;5011962;28;20022;-73
2023/10/25 07:12:21;;;;;;;18.35;11.52;;;;;;;-148.88;100.00;-17125.47;5013386;28;20033;-72
2023/10/25 07:14:46;;;;;;;8.68;4.45;;;;;;;-148.88;100.00;-17125.47;5012060;28;20034;-72
2023/10/25 07:17:11;;;;;;;12.45;5.70;;;;;;;-148.88;100.00;-17125.47;5013464;28;20424;-73
2023/10/25 07:19:38;;;;;;;10.43;5.30;;;;;;;-148.88;100.00;-17125.47;5013323;28;20096;-72
2023/10/25 07:22:03;;;;;;;11.50;5.93;;;;;;;-148.88;100.00;-17125.47;5013088;28;20021;-73
2023/10/25 07:24:29;;;;;;;17.52;12.50;;;;;;;-148.88;100.00;-17125.47;5013080;28;20403;-73
2023/10/25 07:26:54;;;;;;;11.32;6.13;;;;;;;-148.88;100.00;-17125.47;5013159;28;20396;-72
2023/10/25 07:29:19;;;;;;;17.42;6.10;;;;;;;-148.88;100.00;-17125.47;5013043;28;20026;-72
2023/10/25 07:31:45;;;;;;;17.58;12.75;;;;;;;-148.88;100.00;-17125.47;5013067;28;20064;-73
2023/10/25 07:34:10;;;;;;;17.73;12.45;;;;;;;-148.88;100.00;-17125.47;5011728;28;20026;-73
2023/10/25 07:36:35;;;;;;;12.82;6.10;;;;;;;-148.88;100.00;-17125.47;5012963;28;20017;-73
2023/10/25 07:39:01;;;;;;;15.25;7.00;;;;;;;-148.88;100.00;-17125.47;5012875;28;20026;-72
2023/10/25 07:41:26;;;;;;;19.88;13.98;;;;;;;-148.88;100.00;-17125.47;5012702;28;20024;-73
2023/10/25 07:43:51;;;;;;;18.52;13.48;;;;;;;-148.88;100.00;-17125.47;5012953;28;20073;-73
2023/10/25 07:46:17;;;;;;;20.25;13.85;;;;;;;-148.88;100.00;-17125.47;5012864;28;20129;-74
2023/10/25 07:48:42;;;;;;;20.58;14.80;;;;;;;-148.88;100.00;-17125.47;5013130;28;20398;-74
2023/10/25 07:51:08;;;;;;;16.08;7.88;;;;;;;-148.88;100.00;-17125.47;5042269;22;20448;-75
2023/10/25 07:53:33;;;;;;;22.08;15.18;;;;;;;-148.88;100.00;-17125.47;5012945;28;20041;-75
2023/10/25 07:56:02;;;;;;;16.02;7.35;;;;;;;-148.88;100.00;-17125.47;4994691;28;20500;-75
2023/10/25 07:58:28;;;;;;;36.95;10.27;;;;;;;-148.88;100.00;-17125.47;4994658;28;20092;-75
2023/10/25 08:00:53;;;;;;;22.90;15.90;;;;;;;-148.88;100.00;-17125.47;5012355;28;20026;-75
2023/10/25 08:03:21;;;;;;;26.02;15.20;;;;;;;-148.88;100.00;-17125.47;5012872;28;20033;-75
2023/10/25 08:05:47;;;;;;;15.80;7.82;;;;;;;-148.88;100.00;-17125.47;5012519;28;20051;-75
2023/10/25 08:08:12;;;;;;;17.85;7.55;;;;;;;-148.88;100.00;-17125.47;5012539;28;20555;-75
2023/10/25 08:10:37;;;;;;;18.05;13.80;;;;;;;-148.88;100.00;-17125.47;5012305;28;20030;-75
2023/10/25 08:13:03;;;;;;;16.55;7.47;;;;;;;-148.88;100.00;-17125.47;5010864;28;20032;-75
2023/10/25 08:15:28;;;;;;;18.38;7.43;;;;;;;-148.88;100.00;-17125.47;5011977;28;20105;-75
2023/10/25 08:17:54;;;;;;;14.27;7.05;;;;;;;-148.88;100.00;-17125.47;5010687;28;20092;-75
2023/10/25 08:20:19;;;;;;;15.48;7.43;;;;;;;-148.88;100.00;-17125.47;5012526;28;20076;-75
2023/10/25 08:22:44;;;;;;;19.25;14.43;;;;;;;-148.88;100.00;-17125.47;5012456;28;20113;-75
2023/10/25 08:25:10;;;;;;;17.92;7.72;;;;;;;-148.88;100.00;-17125.47;5010911;28;20488;-75
2023/10/25 08:27:36;;;;;;;18.65;13.48;;;;;;;-148.88;100.00;-17125.47;5012537;28;20171;-75
2023/10/25 08:30:02;;;;;;;17.55;12.43;;;;;;;-148.88;100.00;-17125.47;5012276;28;20033;-76
2023/10/25 08:32:28;;;;;;;14.05;11.70;;;;;;;-148.88;100.00;-17125.47;5012233;28;20026;-75
2023/10/25 08:34:54;;;;;;;14.77;11.32;;;;;;;-148.88;100.00;-17125.47;5011056;28;20048;-75
2023/10/25 08:37:19;;;;;;;15.85;11.82;;;;;;;-148.88;100.00;-17125.47;5010775;28;20138;-75
2023/10/25 08:39:44;;;;;;;15.70;10.77;;;;;;;-148.88;100.00;-17125.47;5012170;28;20048;-76
2023/10/25 08:42:13;;;;;;;15.27;10.75;;;;;;;-148.88;100.00;-17125.47;5012243;28;20121;-75
2023/10/25 08:44:42;;;;;;;10.75;5.18;;;;;;;-148.88;100.00;-17125.47;5012439;28;20037;-76
2023/10/25 08:47:11;;;;;;;11.65;6.00;;;;;;;-148.88;100.00;-17125.47;5010615;28;20110;-75
2023/10/25 08:49:38;;;;;;;13.10;9.75;;;;;;;-148.88;100.00;-17125.47;5010866;28;20427;-75
2023/10/25 08:52:05;;;;;;;11.88;9.55;;;;;;;-148.88;100.00;-17125.47;5011903;28;20512;-75
2023/10/25 08:54:30;;;;;;;10.95;8.48;;;;;;;-148.88;100.00;-17125.47;5012026;28;20048;-75
2023/10/25 08:56:55;;;;;;;10.10;7.93;;;;;;;-148.88;100.00;-17125.47;5012005;28;20480;-75
2023/10/25 08:59:21;;;;;;;11.93;7.85;;;;;;;-148.88;100.00;-17125.47;5012262;28;20033;-75
2023/10/25 09:01:48;;;;;;;10.60;7.53;;;;;;;-148.88;100.00;-17125.47;5010641;28;20069;-76
2023/10/25 09:04:13;;;;;;;8.90;7.20;;;;;;;-148.88;100.00;-17125.47;5011901;28;20030;-75
2023/10/25 09:06:39;;;;;;;9.63;6.63;;;;;;;-148.88;100.00;-17125.47;5012028;28;20026;-75
2023/10/25 09:09:07;;;;;;;9.75;6.63;;;;;;;-148.88;100.00;-17125.47;5011804;28;20073;-75
2023/10/25 09:11:45;;;;;;;11.02;7.47;;;;;;;-148.88;100.00;-17125.47;5011796;28;20029;-76
2023/10/25 09:14:13;;;;;;;9.93;7.22;;;;;;;-148.88;100.00;-17125.47;5011687;28;20112;-76
2023/10/25 09:16:43;;;;;;;8.05;6.85;;;;;;;-148.88;100.00;-17125.47;5011791;28;20025;-75
2023/10/25 09:19:09;;;;;;;10.20;7.30;;;;;;;-148.88;100.00;-17125.47;5011652;28;20527;-76
2023/10/25 09:21:34;;;;;;;10.93;7.20;;;;;;;-148.88;100.00;-17125.47;5011644;28;20057;-76
2023/10/25 09:24:02;;;;;;;9.48;6.78;;;;;;;-148.88;100.00;-17125.47;5010294;28;20416;-76
2023/10/25 09:26:34;;;;;;;9.38;7.40;;;;;;;-148.88;100.00;-17125.47;5011796;28;20026;-76
2023/10/25 09:29:00;;;;;;;8.65;3.88;;;;;;;-148.88;100.00;-17125.47;5013413;28;20075;-76
2023/10/25 09:31:29;;;;;;;9.20;7.38;;;;;;;-148.88;100.00;-17125.47;5013860;28;20431;-75
2023/10/25 09:33:59;;;;;;;10.55;6.95;;;;;;;-148.88;100.00;-17125.47;5015232;28;20030;-75
2023/10/25 09:36:26;;;;;;;9.88;7.03;;;;;;;-148.88;100.00;-17125.47;5015030;28;20100;-75
2023/10/25 09:38:53;;;;;;;8.82;6.75;;;;;;;-148.88;100.00;-17125.47;5014866;28;20051;-76
2023/10/25 09:41:19;;;;;;;9.95;7.03;;;;;;;-148.88;100.00;-17125.47;5015163;28;20026;-75
2023/10/25 09:43:52;;;;;;;9.00;6.72;;;;;;;-148.88;100.00;-17125.47;5015235;28;20030;-75
2023/10/25 09:46:19;;;;;;;8.23;6.20;;;;;;;-148.88;100.00;-17125.47;5013654;28;20092;-76
2023/10/25 09:49:06;;;;;;;9.07;6.45;;;;;;;-148.88;100.00;-17125.47;5014734;28;20055;-75
2023/10/25 09:51:44;;;;;;;8.65;6.55;;;;;;;-148.88;100.00;-17125.47;5013463;28;20026;-75
2023/10/25 09:54:11;;;;;;;8.73;6.75;;;;;;;-148.88;100.00;-17125.47;5015250;28;20388;-75
2023/10/25 09:56:37;;;;;;;11.82;7.47;;;;;;;-148.88;100.00;-17125.47;5014662;28;20034;-76
2023/10/25 09:59:06;;;;;;;10.25;6.80;;;;;;;-148.88;100.00;-17125.47;5013266;28;20111;-75
2023/10/25 10:01:31;;;;;;;8.60;6.30;;;;;;;-148.88;100.00;-17125.47;5014533;28;20026;-75
2023/10/25 10:04:12;;;;;;;8.40;6.20;;;;;;;-148.88;100.00;-17125.47;5014531;28;20026;-76
2023/10/25 10:06:44;;;;;;;9.43;6.35;;;;;;;-148.88;100.00;-17125.47;5013356;28;20112;-76
2023/10/25 10:09:22;;;;;;;10.07;7.07;;;;;;;-148.88;100.00;-17125.47;5013109;28;20066;-76
2023/10/25 10:11:53;;;;;;;9.20;6.35;;;;;;;-148.88;100.00;-17125.47;5013064;28;20032;-75
2023/10/25 10:14:35;;;;;;;10.38;5.50;;;;;;;-148.88;100.00;-17125.47;5014199;28;20409;-76
2023/10/25 10:17:14;;;;;;;9.82;5.40;;;;;;;-148.88;100.00;-17125.47;5014264;28;20022;-75
2023/10/25 10:19:42;;;;;;;8.10;5.47;;;;;;;-148.88;100.00;-17125.47;5014301;28;20113;-76
2023/10/25 10:22:13;;;;;;;7.85;5.60;;;;;;;-148.88;100.00;-17125.47;5012682;28;20018;-76
2023/10/25 10:24:39;;;;;;;8.95;5.38;;;;;;;-148.88;100.00;-17125.47;5014059;28;20036;-75
2023/10/25 10:27:04;;;;;;;8.07;5.28;;;;;;;-148.88;100.00;-17125.47;5014351;28;20029;-75
2023/10/25 10:29:33;;;;;;;6.65;4.60;;;;;;;-148.88;100.00;-17125.47;5012533;28;20485;-75
2023/10/25 10:31:59;;;;;;;7.97;5.57;;;;;;;-148.88;100.00;-17125.47;5012610;28;20476;-75
2023/10/25 10:34:45;;;;;;;8.48;4.95;;;;;;;-148.88;100.00;-17125.47;5014074;28;20345;-75
2023/10/25 10:37:14;;;;;;;6.75;4.82;;;;;;;-148.88;100.00;-17125.47;5014154;28;20022;-75
2023/10/25 10:39:58;;;;;;;6.47;4.82;;;;;;;-148.88;100.00;-17125.47;5013163;28;20047;-75
2023/10/25 10:42:41;;;;;;;8.38;5.22;;;;;;;-148.88;100.00;-17125.47;5013661;28;20021;-75
2023/10/25 10:45:11;;;;;;;7.25;2.90;;;;;;;-148.88;100.00;-17125.47;5013895;28;20057;-75
2023/10/25 10:48:02;;;;;;;8.50;5.75;;;;;;;-148.88;100.00;-17125.47;5013828;28;20025;-75
2023/10/25 10:50:28;;;;;;;9.63;5.15;;;;;;;-148.88;100.00;-17125.47;5012114;28;20041;-75
2023/10/25 10:52:53;;;;;;;8.82;5.20;;;;;;;-148.88;100.00;-17125.47;5013974;28;20030;-76